createdAt,value
2023-03-12T00:02:25.772Z,100003.69
2023-03-12T00:05:28.797Z,100010.63
2023-03-12T00:08:32.076Z,100016.59
2023-03-12T00:11:35.482Z,100015.25
2023-03-12T00:14:38.482Z,100015.88
2023-03-12T00:17:41.805Z,100021.69
2023-03-12T00:20:53.838Z,100010.59
2023-03-12T00:23:56.914Z,100010.88
2023-03-12T00:26:59.873Z,100007.97
2023-03-12T00:30:05.138Z,100003.38
2023-03-12T00:33:08.696Z,100005.31
2023-03-12T00:36:18.253Z,100018.41
2023-03-12T00:39:21.318Z,100023.91
2023-03-12T00:42:24.204Z,100021.72
2023-03-12T00:45:27.194Z,100020.91
2023-03-12T00:48:30.533Z,100031.19
2023-03-12T00:51:34.126Z,100029.03
2023-03-12T00:54:37.355Z,100035.44
2023-03-12T00:57:40.451Z,100026.19
2023-03-12T01:00:43.684Z,100024.19
2023-03-12T01:03:47.257Z,100027.28
2023-03-12T01:06:50.554Z,100035.41
2023-03-12T01:09:53.969Z,100037.97
2023-03-12T01:12:57.301Z,100043.81
2023-03-12T01:16:00.285Z,100042.75
2023-03-12T01:19:04.600Z,100039.31
2023-03-12T01:22:07.661Z,100039.69
2023-03-12T01:25:12.036Z,100035.00
2023-03-12T01:28:15.502Z,100037.97
2023-03-12T01:31:20.183Z,100044.34
2023-03-12T01:34:23.562Z,100047.41
2023-03-12T01:37:27.576Z,100049.50
2023-03-12T01:40:34.075Z,100052.47
2023-03-12T01:43:39.326Z,100061.16
2023-03-12T01:46:44.620Z,100073.91
2023-03-12T01:49:54.432Z,100072.09
2023-03-12T01:52:57.339Z,100080.31
2023-03-12T01:56:01.640Z,100079.91
2023-03-12T01:59:13.109Z,100077.94
2023-03-12T02:02:18.705Z,100074.25
2023-03-12T02:05:43.870Z,100078.47
2023-03-12T02:08:48.560Z,100084.25
2023-03-12T02:11:51.582Z,100088.81
2023-03-12T02:14:56.383Z,100092.78
2023-03-12T02:17:59.896Z,100084.75
2023-03-12T02:21:08.864Z,100097.47
2023-03-12T02:24:43.640Z,100103.91
2023-03-12T02:27:47.106Z,100104.91
2023-03-12T02:30:57.334Z,100103.72
2023-03-12T02:34:00.870Z,100102.09
2023-03-12T02:37:07.068Z,100095.94
2023-03-12T02:40:15.670Z,100097.47
2023-03-12T02:43:21.981Z,100108.13
2023-03-12T02:46:25.630Z,100116.91
2023-03-12T02:49:31.716Z,100117.63
2023-03-12T02:52:38.100Z,100125.28
2023-03-12T02:55:41.175Z,100131.34
2023-03-12T02:58:45.210Z,100133.25
2023-03-12T03:01:52.603Z,100135.38
2023-03-12T03:04:55.837Z,100142.19
2023-03-12T03:07:58.883Z,100151.78
2023-03-12T03:11:03.758Z,100157.06
2023-03-12T03:14:08.321Z,100167.06
2023-03-12T03:17:11.860Z,100181.59
2023-03-12T03:20:17.088Z,100188.94
2023-03-12T03:23:20.050Z,100197.75
2023-03-12T03:26:24.086Z,100194.59
2023-03-12T03:29:27.965Z,100199.75
2023-03-12T03:32:31.332Z,100198.19
2023-03-12T03:35:34.919Z,100190.50
2023-03-12T03:38:38.532Z,100193.84
2023-03-12T03:41:42.089Z,100197.94
2023-03-12T03:44:45.129Z,100196.03
2023-03-12T03:47:48.461Z,100201.72
2023-03-12T03:50:51.828Z,100204.47
2023-03-12T03:53:57.516Z,100220.53
2023-03-12T03:57:00.895Z,100216.97
2023-03-12T04:00:09.673Z,100220.50
2023-03-12T04:03:17.269Z,100220.97
2023-03-12T04:06:21.032Z,100224.69
2023-03-12T04:09:24.433Z,100221.53
2023-03-12T04:12:28.197Z,100224.00
2023-03-12T04:15:31.317Z,100226.34
2023-03-12T04:18:36.357Z,100227.72
2023-03-12T04:21:40.231Z,100230.75
2023-03-12T04:24:44.130Z,100241.75
2023-03-12T04:27:47.389Z,100241.03
2023-03-12T04:31:00.797Z,100245.84
2023-03-12T04:34:12.570Z,100248.03
2023-03-12T04:37:17.616Z,100263.00
2023-03-12T04:40:21.894Z,100268.91
2023-03-12T04:43:24.999Z,100265.00
2023-03-12T04:46:29.186Z,100269.28
2023-03-12T04:49:32.499Z,100268.44
2023-03-12T04:52:35.859Z,100269.94
2023-03-12T04:55:39.800Z,100276.13
2023-03-12T04:58:43.056Z,100277.50
2023-03-12T05:01:46.786Z,100274.13
2023-03-12T05:04:57.865Z,100277.94
2023-03-12T05:08:01.448Z,100289.72
2023-03-12T05:11:05.162Z,100291.66
2023-03-12T05:14:11.522Z,100295.09
2023-03-12T05:17:14.971Z,100298.22
2023-03-12T05:20:18.153Z,100297.88
2023-03-12T05:23:23.216Z,100305.47
2023-03-12T05:26:31.670Z,100315.63
2023-03-12T05:29:55.235Z,100323.28
2023-03-12T05:32:58.694Z,100308.94
2023-03-12T05:36:02.256Z,100314.00
2023-03-12T05:39:05.682Z,100316.31
2023-03-12T05:42:10.268Z,100319.91
2023-03-12T05:45:13.787Z,100320.00
2023-03-12T05:48:21.681Z,100326.88
2023-03-12T05:51:25.998Z,100327.72
2023-03-12T05:54:29.396Z,100334.97
2023-03-12T05:57:32.924Z,100341.69
2023-03-12T06:00:38.204Z,100343.75
2023-03-12T06:03:43.336Z,100350.66
2023-03-12T06:06:46.997Z,100350.56
2023-03-12T06:09:50.177Z,100366.25
2023-03-12T06:12:53.194Z,100366.38
2023-03-12T06:16:05.592Z,100371.34
2023-03-12T06:19:14.318Z,100371.75
2023-03-12T06:22:20.217Z,100374.44
2023-03-12T06:25:27.634Z,100375.66
2023-03-12T06:28:31.076Z,100382.97
2023-03-12T06:31:36.581Z,100380.25
2023-03-12T06:34:41.410Z,100386.03
2023-03-12T06:37:44.688Z,100373.19
2023-03-12T06:41:01.342Z,100377.06
2023-03-12T06:44:06.483Z,100380.97
2023-03-12T06:47:09.944Z,100383.38
2023-03-12T06:50:14.619Z,100372.25
2023-03-12T06:53:18.446Z,100374.59
2023-03-12T06:56:21.455Z,100387.84
2023-03-12T06:59:24.667Z,100381.44
2023-03-12T07:02:28.727Z,100389.88
2023-03-12T07:05:33.273Z,100382.88
2023-03-12T07:08:36.069Z,100392.53
2023-03-12T07:11:39.412Z,100391.91
2023-03-12T07:14:42.586Z,100389.41
2023-03-12T07:17:45.538Z,100392.41
2023-03-12T07:20:48.594Z,100390.66
2023-03-12T07:23:51.869Z,100396.19
2023-03-12T07:26:54.817Z,100395.81
2023-03-12T07:29:58.336Z,100402.06
2023-03-12T07:33:12.774Z,100408.16
2023-03-12T07:36:15.974Z,100411.41
2023-03-12T07:39:19.501Z,100417.84
2023-03-12T07:42:23.585Z,100425.59
2023-03-12T07:45:26.949Z,100420.22
2023-03-12T07:48:29.949Z,100430.75
2023-03-12T07:51:33.217Z,100435.81
2023-03-12T07:54:38.429Z,100433.41
2023-03-12T07:58:04.623Z,100433.13
2023-03-12T08:01:06.780Z,100441.28
2023-03-12T08:04:10.433Z,100443.91
2023-03-12T08:07:14.301Z,100451.25
2023-03-12T08:10:17.525Z,100451.31
2023-03-12T08:13:21.058Z,100449.00
2023-03-12T08:16:24.160Z,100467.53
2023-03-12T08:19:28.002Z,100459.81
2023-03-12T08:22:31.077Z,100466.75
2023-03-12T08:25:34.562Z,100458.59
2023-03-12T08:28:37.565Z,100473.28
2023-03-12T08:31:50.408Z,100468.22
2023-03-12T08:35:00.594Z,100464.00
2023-03-12T08:38:03.908Z,100464.81
2023-03-12T08:41:07.004Z,100476.75
2023-03-12T08:44:10.278Z,100474.81
2023-03-12T08:47:13.347Z,100458.25
2023-03-12T08:50:17.259Z,100468.09
2023-03-12T08:53:20.424Z,100480.09
2023-03-12T08:56:23.513Z,100491.72
2023-03-12T08:59:26.971Z,100490.16
2023-03-12T09:02:30.224Z,100485.97
2023-03-12T09:05:33.412Z,100488.03
2023-03-12T09:08:36.404Z,100495.88
2023-03-12T09:11:42.756Z,100475.56
2023-03-12T09:15:03.722Z,100483.63
2023-03-12T09:18:07.433Z,100481.00
2023-03-12T09:21:10.319Z,100480.84
2023-03-12T09:24:13.326Z,100478.50
2023-03-12T09:27:16.461Z,100482.66
2023-03-12T09:30:21.929Z,100493.59
2023-03-12T09:33:24.980Z,100492.50
2023-03-12T09:36:28.763Z,100492.31
2023-03-12T09:39:32.006Z,100500.44
2023-03-12T09:42:42.309Z,100499.16
2023-03-12T09:45:47.747Z,100499.66
2023-03-12T09:48:53.495Z,100502.03
2023-03-12T09:52:01.050Z,100499.47
2023-03-12T09:55:15.756Z,100498.06
2023-03-12T09:58:33.256Z,100497.03
2023-03-12T10:01:59.436Z,100492.19
2023-03-12T10:05:07.953Z,100493.28
2023-03-12T10:08:40.278Z,100486.03
2023-03-12T10:12:15.600Z,100487.06
2023-03-12T10:15:28.273Z,100483.44
2023-03-12T10:19:02.879Z,100481.69
2023-03-12T10:22:43.559Z,100481.72
2023-03-12T10:26:09.067Z,100482.28
2023-03-12T10:29:24.354Z,100467.00
2023-03-12T10:32:44.498Z,100467.44
2023-03-12T10:35:48.590Z,100469.09
2023-03-12T10:38:52.362Z,100459.66
2023-03-12T10:41:56.943Z,100459.41
2023-03-12T10:45:20.424Z,100464.13
2023-03-12T10:48:25.765Z,100483.91
2023-03-12T10:51:28.871Z,100474.78
2023-03-12T10:54:40.670Z,100471.28
2023-03-12T10:57:44.301Z,100465.34
2023-03-12T11:00:59.628Z,100468.69
2023-03-12T11:04:38.484Z,100465.38
2023-03-12T11:07:44.330Z,100467.13
2023-03-12T11:10:48.020Z,100461.44
2023-03-12T11:14:08.036Z,100463.75
2023-03-12T11:17:24.015Z,100465.66
2023-03-12T11:20:30.574Z,100457.38
2023-03-12T11:23:33.942Z,100456.75
2023-03-12T11:26:47.564Z,100450.22
2023-03-12T11:29:51.005Z,100443.09
2023-03-12T11:33:00.042Z,100458.97
2023-03-12T11:36:35.974Z,100451.91
2023-03-12T11:40:10.124Z,100445.94
2023-03-12T11:43:32.537Z,100446.78
2023-03-12T11:46:52.701Z,100443.28
2023-03-12T11:50:09.275Z,100436.84
2023-03-12T11:53:36.739Z,100435.63
2023-03-12T11:57:01.811Z,100434.16
2023-03-12T12:00:31.044Z,100416.94
2023-03-12T12:03:55.765Z,100418.81
2023-03-12T12:07:17.983Z,100418.34
2023-03-12T12:10:27.174Z,100414.84
2023-03-12T12:13:52.905Z,100410.94
2023-03-12T12:17:06.092Z,100412.47
2023-03-12T12:20:40.007Z,100410.16
2023-03-12T12:24:01.573Z,100403.16
2023-03-12T12:27:21.829Z,100409.88
2023-03-12T12:31:00.879Z,100408.66
2023-03-12T12:34:34.858Z,100414.28
2023-03-12T12:37:48.117Z,100414.44
2023-03-12T12:40:54.585Z,100414.84
2023-03-12T12:44:06.558Z,100401.91
2023-03-12T12:47:17.372Z,100406.38
2023-03-12T12:50:24.552Z,100405.44
2023-03-12T12:53:36.153Z,100411.97
2023-03-12T12:57:14.557Z,100416.31
2023-03-12T13:00:54.539Z,100409.31
2023-03-12T13:04:05.651Z,100402.84
2023-03-12T13:07:14.498Z,100406.91
2023-03-12T13:10:48.599Z,100406.94
2023-03-12T13:14:20.757Z,100412.06
2023-03-12T13:17:28.211Z,100408.78
2023-03-12T13:20:51.638Z,100417.78
2023-03-12T13:24:22.153Z,100413.59
2023-03-12T13:27:38.987Z,100406.69
2023-03-12T13:30:50.364Z,100411.69
2023-03-12T13:33:57.953Z,100411.75
2023-03-12T13:37:03.512Z,100409.09
2023-03-12T13:40:29.107Z,100417.34
2023-03-12T13:43:38.349Z,100416.50
2023-03-12T13:46:42.642Z,100420.13
2023-03-12T13:50:00.286Z,100423.72
2023-03-12T13:53:08.598Z,100423.69
2023-03-12T13:56:14.841Z,100428.00
2023-03-12T13:59:19.610Z,100429.00
2023-03-12T14:02:35.136Z,100429.72
2023-03-12T14:06:07.552Z,100430.28
2023-03-12T14:09:24.400Z,100428.06
2023-03-12T14:12:40.143Z,100433.78
2023-03-12T14:15:56.456Z,100444.78
2023-03-12T14:19:00.334Z,100436.75
2023-03-12T14:22:07.797Z,100435.56
2023-03-12T14:25:32.356Z,100432.88
2023-03-12T14:28:41.817Z,100444.53
2023-03-12T14:31:46.029Z,100440.22
2023-03-12T14:35:23.410Z,100440.88
2023-03-12T14:38:34.646Z,100444.44
2023-03-12T14:41:44.730Z,100432.09
2023-03-12T14:44:59.041Z,100441.03
2023-03-12T14:48:02.552Z,100434.88
2023-03-12T14:51:07.822Z,100438.81
2023-03-12T14:54:17.806Z,100437.25
2023-03-12T14:57:21.309Z,100429.06
2023-03-12T15:00:28.411Z,100429.03
2023-03-12T15:03:41.463Z,100437.50
2023-03-12T15:06:46.153Z,100437.03
2023-03-12T15:09:52.277Z,100432.69
2023-03-12T15:12:59.385Z,100430.03
2023-03-12T15:16:02.650Z,100432.81
2023-03-12T15:19:06.348Z,100440.16
2023-03-12T15:22:28.347Z,100445.16
2023-03-12T15:25:33.894Z,100443.25
2023-03-12T15:28:37.462Z,100451.03
2023-03-12T15:31:46.322Z,100453.31
2023-03-12T15:34:49.910Z,100447.88
2023-03-12T15:37:53.771Z,100451.00
2023-03-12T15:41:00.683Z,100446.75
2023-03-12T15:44:07.057Z,100442.84
2023-03-12T15:47:18.426Z,100452.50
2023-03-12T15:50:43.442Z,100440.94
2023-03-12T15:53:46.434Z,100455.34
2023-03-12T15:56:49.579Z,100458.03
2023-03-12T16:00:23.884Z,100459.97
2023-03-12T16:03:26.873Z,100456.91
2023-03-12T16:06:30.286Z,100457.28
2023-03-12T16:09:34.868Z,100463.09
2023-03-12T16:12:38.386Z,100457.31
2023-03-12T16:15:43.131Z,100465.88
2023-03-12T16:18:46.284Z,100468.97
2023-03-12T16:21:50.499Z,100467.47
2023-03-12T16:24:53.690Z,100479.84
2023-03-12T16:28:00.892Z,100474.06
2023-03-12T16:31:11.625Z,100470.19
2023-03-12T16:34:14.465Z,100470.59
2023-03-12T16:37:17.289Z,100474.47
2023-03-12T16:40:32.888Z,100472.16
2023-03-12T16:43:38.139Z,100474.50
2023-03-12T16:46:41.181Z,100482.19
2023-03-12T16:49:44.693Z,100484.53
2023-03-12T16:52:51.164Z,100478.34
2023-03-12T16:55:57.600Z,100473.34
2023-03-12T16:59:05.411Z,100474.88
2023-03-12T17:02:16.761Z,100473.72
2023-03-12T17:05:19.640Z,100476.03
2023-03-12T17:08:22.950Z,100472.19
2023-03-12T17:11:30.553Z,100473.72
2023-03-12T17:14:33.715Z,100475.25
2023-03-12T17:17:37.023Z,100479.13
2023-03-12T17:20:40.919Z,100492.22
2023-03-12T17:23:46.459Z,100491.84
2023-03-12T17:26:52.010Z,100489.13
2023-03-12T17:29:54.923Z,100491.78
2023-03-12T17:33:12.647Z,100489.06
2023-03-12T17:36:16.338Z,100484.06
2023-03-12T17:39:19.563Z,100484.44
2023-03-12T17:42:23.101Z,100496.00
2023-03-12T17:45:27.053Z,100501.44
2023-03-12T17:48:30.250Z,100497.88
2023-03-12T17:51:33.524Z,100492.50
2023-03-12T17:54:36.742Z,100493.94
2023-03-12T17:57:40.796Z,100500.09
2023-03-12T18:00:43.852Z,100504.28
2023-03-12T18:03:47.168Z,100512.72
2023-03-12T18:06:50.125Z,100517.28
2023-03-12T18:09:53.534Z,100529.09
2023-03-12T18:12:56.770Z,100529.41
2023-03-12T18:16:00.097Z,100524.38
2023-03-12T18:19:04.241Z,100521.97
2023-03-12T18:22:07.561Z,100519.25
2023-03-12T18:25:11.731Z,100512.34
2023-03-12T18:28:15.486Z,100512.75
2023-03-12T18:31:18.973Z,100516.28
2023-03-12T18:34:23.616Z,100529.34
2023-03-12T18:37:27.073Z,100517.28
2023-03-12T18:40:32.911Z,100519.53
2023-03-12T18:43:37.083Z,100517.63
2023-03-12T18:46:40.746Z,100528.94
2023-03-12T18:49:44.260Z,100519.44
2023-03-12T18:52:48.243Z,100517.34
2023-03-12T18:55:58.433Z,100516.66
2023-03-12T18:59:02.168Z,100522.00
2023-03-12T19:02:05.599Z,100514.28
2023-03-12T19:05:11.257Z,100516.66
2023-03-12T19:08:15.400Z,100533.50
2023-03-12T19:11:19.379Z,100543.38
2023-03-12T19:14:22.621Z,100552.00
2023-03-12T19:17:26.256Z,100558.53
2023-03-12T19:20:29.929Z,100563.78
2023-03-12T19:23:32.911Z,100563.56
2023-03-12T19:26:36.405Z,100563.19
2023-03-12T19:29:39.757Z,100561.47
2023-03-12T19:32:44.723Z,100554.53
2023-03-12T19:35:48.348Z,100560.97
2023-03-12T19:38:51.762Z,100564.56
2023-03-12T19:41:55.500Z,100558.16
2023-03-12T19:44:59.188Z,100563.41
2023-03-12T19:48:04.087Z,100560.38
2023-03-12T19:51:10.260Z,100565.22
2023-03-12T19:54:13.561Z,100576.31
2023-03-12T19:57:17.374Z,100573.84
2023-03-12T20:00:20.989Z,100586.94
2023-03-12T20:03:24.470Z,100599.13
2023-03-12T20:06:28.035Z,100604.06
2023-03-12T20:09:30.994Z,100592.56
2023-03-12T20:12:34.117Z,100595.31
2023-03-12T20:15:39.580Z,100602.16
2023-03-12T20:18:43.093Z,100595.94
2023-03-12T20:21:48.414Z,100589.00
2023-03-12T20:24:54.048Z,100591.03
2023-03-12T20:28:00.096Z,100598.81
2023-03-12T20:31:12.965Z,100603.53
2023-03-12T20:34:16.683Z,100599.09
2023-03-12T20:37:20.805Z,100602.69
2023-03-12T20:40:23.892Z,100598.78
2023-03-12T20:43:27.328Z,100607.91
2023-03-12T20:46:30.516Z,100612.34
2023-03-12T20:49:33.935Z,100611.63
2023-03-12T20:52:37.453Z,100620.50
2023-03-12T20:55:41.432Z,100619.16
2023-03-12T20:58:45.003Z,100626.44
2023-03-12T21:01:50.969Z,100629.41
2023-03-12T21:04:54.164Z,100621.44
2023-03-12T21:07:58.388Z,100611.81
2023-03-12T21:11:01.517Z,100611.75
2023-03-12T21:14:05.193Z,100599.81
2023-03-12T21:17:13.445Z,100597.72
2023-03-12T21:20:18.937Z,100606.59
2023-03-12T21:23:22.656Z,100615.13
2023-03-12T21:26:26.071Z,100616.00
2023-03-12T21:29:29.222Z,100619.56
2023-03-12T21:32:32.329Z,100614.97
2023-03-12T21:35:35.457Z,100614.53
2023-03-12T21:38:40.059Z,100602.09
2023-03-12T21:41:43.579Z,100594.81
2023-03-12T21:44:46.675Z,100583.31
2023-03-12T21:47:49.823Z,100589.75
2023-03-12T21:50:52.921Z,100597.13
2023-03-12T21:53:57.960Z,100590.50
2023-03-12T21:57:03.051Z,100591.06
2023-03-12T22:00:09.656Z,100588.38
2023-03-12T22:03:14.766Z,100585.09
2023-03-12T22:06:18.036Z,100582.53
2023-03-12T22:09:21.327Z,100586.88
2023-03-12T22:12:24.386Z,100590.09
2023-03-12T22:15:28.521Z,100581.78
2023-03-12T22:18:31.723Z,100582.31
2023-03-12T22:21:35.034Z,100588.31
2023-03-12T22:24:38.121Z,100582.16
2023-03-12T22:27:41.096Z,100577.22
2023-03-12T22:30:47.445Z,100566.81
2023-03-12T22:33:50.807Z,100566.53
2023-03-12T22:36:53.906Z,100566.81
2023-03-12T22:40:01.677Z,100562.44
2023-03-12T22:43:05.271Z,100551.81
2023-03-12T22:46:08.750Z,100561.53
2023-03-12T22:49:12.105Z,100566.63
2023-03-12T22:52:15.152Z,100575.13
2023-03-12T22:55:18.319Z,100584.00
2023-03-12T22:58:21.695Z,100586.34
2023-03-12T23:01:25.452Z,100600.09
2023-03-12T23:04:28.926Z,100606.97
2023-03-12T23:07:32.266Z,100604.41
2023-03-12T23:10:35.910Z,100613.34
2023-03-12T23:13:41.893Z,100614.88
2023-03-12T23:16:45.276Z,100616.13
2023-03-12T23:19:48.981Z,100614.16
2023-03-12T23:22:52.176Z,100612.66
2023-03-12T23:25:57.330Z,100608.88
2023-03-12T23:29:00.919Z,100618.84
2023-03-12T23:32:04.584Z,100619.38
2023-03-12T23:35:08.307Z,100613.53
2023-03-12T23:38:11.382Z,100620.13
2023-03-12T23:41:20.671Z,100619.69
2023-03-12T23:44:24.393Z,100620.53
2023-03-12T23:47:27.780Z,100630.81
2023-03-12T23:50:34.146Z,100632.38
2023-03-12T23:53:38.213Z,100631.34
2023-03-12T23:56:41.927Z,100629.13
2023-03-12T23:59:45.516Z,100629.91
